Time;durP1;ratioP1;P1;durP2;ratioP2;P2;SDS_P1;SDS_P2;PMS_P1;PMS_P2;Temp;Humidity;BMP_temperature;BMP_pressure;BME280_temperature;BME280_humidity;BME280_pressure;Samples;Min_cycle;Max_cycle;Signal;HPM_P1;HPM_P2
2021/01/12 00:00:09;;;;;;;11.48;1.83;;;;;;;9.36;100.00;102028.66;5073548;28;20036;-65
2021/01/12 00:02:34;;;;;;;17.38;2.53;;;;;;;9.38;100.00;102047.56;5073613;28;20032;-66
2021/01/12 00:05:00;;;;;;;26.85;2.33;;;;;;;9.39;100.00;102041.06;5055728;28;20089;-66
2021/01/12 00:07:26;;;;;;;13.20;2.47;;;;;;;9.40;100.00;102040.84;5073542;28;20059;-66
2021/01/12 00:09:51;;;;;;;15.20;2.65;;;;;;;9.40;100.00;102040.00;5073484;28;20041;-66
2021/01/12 00:12:18;;;;;;;10.90;1.40;;;;;;;9.39;100.00;102041.06;5055818;28;20036;-67
2021/01/12 00:14:44;;;;;;;28.13;2.55;;;;;;;9.39;100.00;102009.19;5073345;28;20036;-65
2021/01/12 00:17:11;;;;;;;18.92;2.60;;;;;;;9.40;100.00;102026.38;5073039;28;20052;-66
2021/01/12 00:19:37;;;;;;;19.90;2.83;;;;;;;9.41;100.00;102011.69;5073353;28;20047;-66
2021/01/12 00:22:09;;;;;;;17.90;2.53;;;;;;;9.42;100.00;102032.47;5073418;28;20123;-66
2021/01/12 00:24:35;;;;;;;22.13;3.92;;;;;;;9.43;100.00;102025.97;5073349;28;20035;-65
2021/01/12 00:27:01;;;;;;;22.20;3.28;;;;;;;9.41;100.00;102037.06;5073360;28;20036;-66
2021/01/12 00:29:32;;;;;;;25.80;2.63;;;;;;;9.42;100.00;102011.47;5037508;28;20052;-65
2021/01/12 00:31:57;;;;;;;23.10;2.80;;;;;;;9.43;100.00;102009.59;5073125;28;20506;-66
2021/01/12 00:34:23;;;;;;;20.23;3.60;;;;;;;9.42;100.00;102021.56;5073260;28;20032;-66
2021/01/12 00:36:51;;;;;;;19.67;2.85;;;;;;;9.39;100.00;102003.72;5073002;28;20040;-66
2021/01/12 00:39:18;;;;;;;29.45;3.33;;;;;;;9.35;100.00;102014.16;5073012;28;20044;-65
2021/01/12 00:41:48;;;;;;;17.88;2.60;;;;;;;9.30;100.00;102016.69;5071861;28;20394;-66
2021/01/12 00:44:14;;;;;;;24.63;3.88;;;;;;;9.28;100.00;102013.31;5072941;28;20402;-66
2021/01/12 00:46:46;;;;;;;22.02;2.72;;;;;;;9.25;100.00;101996.53;5072877;28;20044;-65
2021/01/12 00:49:12;;;;;;;25.40;3.30;;;;;;;9.23;100.00;101998.63;5072669;28;20482;-66
2021/01/12 00:51:39;;;;;;;22.30;3.13;;;;;;;9.20;100.00;101978.09;5054847;28;20382;-66
2021/01/12 00:54:10;;;;;;;24.77;4.75;;;;;;;9.17;100.00;101986.66;5072875;28;20037;-66
2021/01/12 00:56:36;;;;;;;19.50;2.03;;;;;;;9.18;100.00;101980.16;5054703;28;20479;-66
2021/01/12 00:59:02;;;;;;;27.95;3.17;;;;;;;9.18;100.00;101971.97;5072549;28;20043;-65
2021/01/12 01:01:28;;;;;;;20.77;2.58;;;;;;;9.20;100.00;101967.19;5072668;28;20486;-66
2021/01/12 01:03:53;;;;;;;17.75;2.88;;;;;;;9.21;100.00;101965.28;5054418;28;20069;-66
2021/01/12 01:06:20;;;;;;;24.27;3.22;;;;;;;9.20;100.00;101948.09;5072495;28;20166;-66
2021/01/12 01:08:46;;;;;;;19.13;2.70;;;;;;;9.21;100.00;101940.75;5072357;28;20055;-66
2021/01/12 01:11:11;;;;;;;24.25;4.30;;;;;;;9.22;100.00;101937.81;5072609;28;20478;-66
2021/01/12 01:13:37;;;;;;;29.25;4.65;;;;;;;9.22;100.00;101943.28;5072373;28;20466;-65
2021/01/12 01:16:03;;;;;;;35.30;4.97;;;;;;;9.24;100.00;101943.06;5072534;28;20044;-66
2021/01/12 01:18:28;;;;;;;32.70;4.35;;;;;;;9.23;100.00;101946.84;5072165;28;20094;-66
2021/01/12 01:20:54;;;;;;;38.88;4.53;;;;;;;9.24;100.00;101951.25;5072660;28;20040;-65
2021/01/12 01:23:20;;;;;;;26.08;3.10;;;;;;;9.25;100.00;101948.31;5072358;28;20041;-66
2021/01/12 01:25:45;;;;;;;35.47;5.03;;;;;;;9.26;100.00;101952.72;5072325;28;20044;-66
2021/01/12 01:28:11;;;;;;;21.85;3.90;;;;;;;9.25;100.00;101953.75;5072209;28;20036;-66
2021/01/12 01:30:36;;;;;;;23.08;3.88;;;;;;;9.26;100.00;101952.72;5071990;28;20131;-66
2021/01/12 01:33:02;;;;;;;22.98;3.63;;;;;;;9.27;100.00;101954.41;5037380;28;20045;-66
2021/01/12 01:35:28;;;;;;;23.63;3.47;;;;;;;9.25;100.00;101945.59;5071862;28;20094;-66
2021/01/12 01:37:53;;;;;;;18.38;4.07;;;;;;;9.26;100.00;101944.53;5071753;28;20048;-65
2021/01/12 01:40:23;;;;;;;24.60;3.70;;;;;;;9.27;100.00;101940.75;5071673;28;20047;-65
2021/01/12 01:42:49;;;;;;;19.23;3.55;;;;;;;9.27;100.00;101924.41;5071815;28;20123;-66
2021/01/12 01:45:16;;;;;;;24.20;2.95;;;;;;;9.28;100.00;101926.09;5071770;28;20536;-67
2021/01/12 01:47:43;;;;;;;21.15;2.60;;;;;;;9.28;100.00;101927.97;5071512;28;20478;-67
2021/01/12 01:50:14;;;;;;;30.95;3.90;;;;;;;9.28;100.00;101908.88;5071604;28;20043;-66
2021/01/12 01:52:43;;;;;;;32.13;3.72;;;;;;;9.27;100.00;101918.13;5071182;28;20487;-65
2021/01/12 01:55:09;;;;;;;27.83;3.67;;;;;;;9.28;100.00;101904.28;5071501;28;20032;-66
2021/01/12 01:57:34;;;;;;;34.83;4.65;;;;;;;9.27;100.00;101913.50;5071365;28;20036;-66
2021/01/12 02:00:03;;;;;;;22.27;3.25;;;;;;;9.28;100.00;101908.88;5071405;28;20036;-66
2021/01/12 02:02:28;;;;;;;35.55;3.67;;;;;;;9.27;100.00;101910.78;5071389;28;20048;-66
2021/01/12 02:05:00;;;;;;;26.25;4.32;;;;;;;9.28;100.00;101906.16;5071425;28;20125;-66
2021/01/12 02:07:27;;;;;;;26.25;4.80;;;;;;;9.28;100.00;101912.44;5071322;28;20044;-65
2021/01/12 02:09:54;;;;;;;24.13;3.15;;;;;;;9.27;100.00;101910.78;5053184;28;20574;-65
2021/01/12 02:12:31;;;;;;;22.63;3.30;;;;;;;9.27;100.00;101908.06;5071171;28;20123;-67
2021/01/12 02:14:57;;;;;;;31.08;3.70;;;;;;;9.27;100.00;101913.50;5071133;28;20072;-65
2021/01/12 02:17:29;;;;;;;19.88;2.83;;;;;;;9.27;100.00;101918.97;5070913;28;20080;-66
2021/01/12 02:19:56;;;;;;;27.50;2.95;;;;;;;9.28;100.00;101934.25;5052919;28;20040;-66
2021/01/12 02:22:23;;;;;;;20.13;2.63;;;;;;;9.30;100.00;101913.09;5071162;28;20445;-66
2021/01/12 02:24:49;;;;;;;18.17;2.22;;;;;;;9.33;100.00;101923.56;5071089;28;20029;-65
2021/01/12 02:27:23;;;;;;;16.85;1.90;;;;;;;9.35;100.00;101921.47;5070957;28;20036;-66
2021/01/12 02:29:52;;;;;;;16.02;2.60;;;;;;;9.36;100.00;101927.75;5070834;28;20051;-65
2021/01/12 02:32:19;;;;;;;14.48;1.80;;;;;;;9.38;100.00;101924.84;5071043;28;20082;-66
2021/01/12 02:34:47;;;;;;;20.90;2.45;;;;;;;9.39;100.00;101934.72;5070986;28;20036;-65
2021/01/12 02:37:17;;;;;;;14.90;2.45;;;;;;;9.39;100.00;101921.09;5070878;28;20398;-66
2021/01/12 02:39:55;;;;;;;16.15;2.25;;;;;;;9.40;100.00;101928.22;5070696;28;20032;-67
2021/01/12 02:42:21;;;;;;;12.55;2.13;;;;;;;9.41;100.00;101913.53;5070699;28;20398;-66
2021/01/12 02:44:47;;;;;;;17.92;2.42;;;;;;;9.41;100.00;101913.53;5070982;28;20036;-65
2021/01/12 02:47:12;;;;;;;18.60;2.78;;;;;;;9.42;100.00;101909.75;5070840;28;20133;-65
2021/01/12 02:49:38;;;;;;;13.95;2.55;;;;;;;9.42;100.00;101910.59;5070699;28;20513;-66
2021/01/12 02:52:05;;;;;;;16.85;2.95;;;;;;;9.42;100.00;101915.19;5070692;28;20032;-65
2021/01/12 02:54:31;;;;;;;17.65;2.33;;;;;;;9.42;100.00;101915.19;5070629;28;20491;-65
2021/01/12 02:56:57;;;;;;;14.02;1.95;;;;;;;9.42;100.00;101909.75;5070695;28;20075;-66
2021/01/12 02:59:26;;;;;;;14.63;1.55;;;;;;;9.42;100.00;101909.75;5034700;28;20052;-66
2021/01/12 03:01:51;;;;;;;10.07;1.45;;;;;;;9.43;100.00;101892.34;5070605;28;20044;-66
2021/01/12 03:04:17;;;;;;;14.48;1.90;;;;;;;9.41;100.00;101883.53;5070996;28;20488;-66
2021/01/12 03:06:42;;;;;;;6.78;1.00;;;;;;;9.43;100.00;101878.72;5040379;28;20495;-65
2021/01/12 03:09:08;;;;;;;10.23;2.05;;;;;;;9.45;100.00;101876.59;5075097;28;20546;-66
2021/01/12 03:11:33;;;;;;;11.80;1.40;;;;;;;9.45;100.00;101887.50;5074769;28;20059;-66
2021/01/12 03:13:59;;;;;;;10.02;1.20;;;;;;;9.47;100.00;101879.97;5074586;28;20071;-66
2021/01/12 03:16:26;;;;;;;16.95;2.05;;;;;;;9.48;100.00;101876.19;5074520;28;20353;-66
2021/01/12 03:18:51;;;;;;;13.98;1.17;;;;;;;9.50;100.00;101871.34;5073874;28;20090;-65
2021/01/12 03:21:17;;;;;;;15.20;1.58;;;;;;;9.50;100.00;101869.47;5056603;28;20095;-67
2021/01/12 03:23:43;;;;;;;19.27;1.55;;;;;;;9.52;100.00;101869.25;5056378;28;20041;-65
2021/01/12 03:26:09;;;;;;;19.30;3.17;;;;;;;9.53;100.00;101865.47;5074868;28;20036;-66
2021/01/12 03:28:34;;;;;;;13.15;1.67;;;;;;;9.55;100.00;101860.69;5074378;28;20146;-66
2021/01/12 03:31:01;;;;;;;13.35;1.60;;;;;;;9.57;100.00;101869.47;5074407;28;20052;-66
2021/01/12 03:33:30;;;;;;;11.00;1.52;;;;;;;9.58;100.00;101862.97;5074084;28;20479;-66
2021/01/12 03:35:56;;;;;;;13.60;0.98;;;;;;;9.59;100.00;101859.19;5074138;28;20048;-65
2021/01/12 03:38:22;;;;;;;5.80;1.40;;;;;;;9.60;100.00;101853.53;5056193;28;20036;-66
2021/01/12 03:40:47;;;;;;;8.00;1.75;;;;;;;9.61;100.00;101854.38;5074016;28;20092;-65
2021/01/12 03:43:13;;;;;;;7.88;1.00;;;;;;;9.61;100.00;101849.75;5074077;28;20043;-66
2021/01/12 03:45:38;;;;;;;8.23;1.60;;;;;;;9.63;100.00;101835.91;5039542;28;20036;-66
2021/01/12 03:48:04;;;;;;;7.45;1.30;;;;;;;9.64;100.00;101840.28;5073818;28;20105;-65
2021/01/12 03:50:29;;;;;;;8.13;1.38;;;;;;;9.65;100.00;101844.69;5073660;28;20067;-65
2021/01/12 03:52:55;;;;;;;10.00;1.08;;;;;;;9.67;100.00;101842.59;5073800;28;20087;-66
2021/01/12 03:55:21;;;;;;;8.18;2.08;;;;;;;9.68;100.00;101838.81;5073881;28;20045;-65
2021/01/12 03:57:47;;;;;;;8.70;1.45;;;;;;;9.68;100.00;101827.91;5055848;28;20489;-66
2021/01/12 04:00:13;;;;;;;7.45;1.60;;;;;;;9.70;100.00;101824.97;5073654;28;20044;-66
2021/01/12 04:02:39;;;;;;;9.02;1.50;;;;;;;9.71;100.00;101822.00;5073745;28;20036;-66
2021/01/12 04:05:05;;;;;;;12.27;1.27;;;;;;;9.72;100.00;101812.81;5073488;28;20040;-66
2021/01/12 04:07:31;;;;;;;5.72;1.60;;;;;;;9.72;100.00;101812.81;5073549;28;20347;-66
2021/01/12 04:09:56;;;;;;;9.85;1.20;;;;;;;9.74;100.00;101816.16;5073409;28;20044;-65
2021/01/12 04:12:22;;;;;;;6.03;0.73;;;;;;;9.75;100.00;101823.28;5038948;28;20157;-66
2021/01/12 04:14:47;;;;;;;3.38;0.55;;;;;;;9.75;100.00;101820.56;5073398;28;20037;-66
2021/01/12 04:17:13;;;;;;;4.90;0.52;;;;;;;9.77;100.00;101809.44;5073645;28;20391;-66
2021/01/12 04:19:39;;;;;;;4.65;0.60;;;;;;;9.78;100.00;101814.69;5073074;28;20151;-64
2021/01/12 04:22:05;;;;;;;4.25;0.50;;;;;;;9.79;100.00;101813.63;5073258;28;20043;-66
2021/01/12 04:24:30;;;;;;;7.05;1.05;;;;;;;9.79;100.00;101813.63;5073523;28;20044;-66
2021/01/12 04:26:56;;;;;;;5.20;0.93;;;;;;;9.82;100.00;101813.19;5073271;28;20518;-65
2021/01/12 04:29:21;;;;;;;9.07;0.98;;;;;;;9.83;100.00;101814.88;5073101;28;20090;-66
2021/01/12 04:31:47;;;;;;;6.05;1.08;;;;;;;9.84;100.00;101800.16;5073566;28;20029;-66
2021/01/12 04:34:13;;;;;;;4.72;0.85;;;;;;;9.86;100.00;101799.94;5073039;28;20165;-65
2021/01/12 04:36:38;;;;;;;11.40;1.75;;;;;;;9.90;100.00;101795.78;5073041;28;20083;-66
2021/01/12 04:39:04;;;;;;;3.72;0.70;;;;;;;9.92;100.00;101797.22;5072854;28;20043;-66
2021/01/12 04:41:30;;;;;;;6.45;0.40;;;;;;;9.94;100.00;101781.47;5073042;28;20055;-65
2021/01/12 04:43:55;;;;;;;8.23;1.13;;;;;;;9.97;100.00;101782.94;5073058;28;20032;-67
2021/01/12 04:46:21;;;;;;;5.97;0.45;;;;;;;9.98;100.00;101769.06;5073038;28;20033;-65
2021/01/12 04:48:49;;;;;;;3.70;0.60;;;;;;;10.01;100.00;101756.03;5072707;28;20086;-66
2021/01/12 04:51:15;;;;;;;4.25;0.60;;;;;;;10.03;100.00;101748.47;5072810;28;20044;-65
2021/01/12 04:53:48;;;;;;;8.32;0.70;;;;;;;10.05;100.00;101752.66;5072653;28;20032;-65
2021/01/12 04:56:15;;;;;;;5.65;1.48;;;;;;;10.10;100.00;101743.84;5072663;28;20032;-65
2021/01/12 04:58:42;;;;;;;6.88;0.63;;;;;;;10.13;100.00;101727.00;5072535;28;20045;-66
2021/01/12 05:01:19;;;;;;;4.20;0.57;;;;;;;10.16;100.00;101732.03;5072723;28;20041;-66
2021/01/12 05:03:46;;;;;;;3.65;0.70;;;;;;;10.19;100.00;101742.50;5072625;28;20027;-67
2021/01/12 05:06:14;;;;;;;1.90;0.30;;;;;;;10.21;100.00;101743.16;5072341;28;20168;-66
2021/01/12 05:08:41;;;;;;;5.50;0.60;;;;;;;10.24;100.00;101750.94;5072317;28;20067;-65
2021/01/12 05:11:08;;;;;;;5.30;1.00;;;;;;;10.24;100.00;101757.25;5072328;28;20048;-65
2021/01/12 05:13:35;;;;;;;6.53;0.75;;;;;;;10.24;100.00;101764.59;5072344;28;20502;-65
2021/01/12 05:16:07;;;;;;;3.80;0.80;;;;;;;10.25;100.00;101760.81;5072216;28;20044;-64
2021/01/12 05:18:37;;;;;;;6.35;0.63;;;;;;;10.27;100.00;101758.69;5072010;28;20052;-66
2021/01/12 05:21:06;;;;;;;3.00;0.52;;;;;;;10.30;100.00;101755.53;5072178;28;20036;-66
2021/01/12 05:23:46;;;;;;;3.50;0.80;;;;;;;10.31;100.00;101757.19;5072262;28;20028;-66
2021/01/12 05:26:15;;;;;;;5.40;0.47;;;;;;;10.33;100.00;101755.09;5072086;28;20051;-65
2021/01/12 05:28:41;;;;;;;4.47;0.52;;;;;;;10.37;100.00;101750.00;5071381;28;20035;-65
2021/01/12 05:31:11;;;;;;;3.13;0.65;;;;;;;10.38;100.00;101752.53;5072104;28;20029;-65
2021/01/12 05:33:39;;;;;;;1.85;0.25;;;;;;;10.41;100.00;101752.13;5072089;28;20039;-66
2021/01/12 05:36:06;;;;;;;2.72;0.50;;;;;;;10.44;100.00;101751.66;5071978;28;20083;-65
2021/01/12 05:38:32;;;;;;;2.00;0.20;;;;;;;10.47;100.00;101745.75;5071694;28;20562;-66
2021/01/12 05:41:01;;;;;;;1.13;0.20;;;;;;;10.48;100.00;101728.31;5071758;28;20063;-66
2021/01/12 05:43:41;;;;;;;2.58;0.20;;;;;;;10.52;100.00;101745.09;5071672;28;20039;-66
2021/01/12 05:46:07;;;;;;;1.98;0.20;;;;;;;10.52;100.00;101736.91;5071796;28;20040;-66
2021/01/12 05:48:38;;;;;;;1.88;0.30;;;;;;;10.53;100.00;101733.94;5071549;28;20116;-66
2021/01/12 05:51:06;;;;;;;1.10;0.40;;;;;;;10.56;100.00;101744.44;5071660;28;20040;-66
2021/01/12 05:53:46;;;;;;;0.55;0.30;;;;;;;10.61;100.00;101741.06;5071417;28;20041;-66
2021/01/12 05:56:20;;;;;;;5.43;1.25;;;;;;;10.65;100.00;101725.06;5071540;28;20039;-65
2021/01/12 05:58:50;;;;;;;5.35;0.65;;;;;;;10.69;100.00;101748.13;5071313;28;20466;-67
2021/01/12 06:01:41;;;;;;;3.15;0.77;;;;;;;10.71;100.00;101751.47;5071461;28;20032;-65
2021/01/12 06:04:12;;;;;;;3.15;0.40;;;;;;;10.71;100.00;101746.03;5071340;28;20032;-65
2021/01/12 06:06:45;;;;;;;4.68;0.73;;;;;;;10.74;100.00;101734.63;5071588;28;20379;-66
2021/01/12 06:09:13;;;;;;;3.53;0.50;;;;;;;10.74;100.00;101745.56;5071150;28;20036;-66
2021/01/12 06:11:41;;;;;;;3.40;0.40;;;;;;;10.73;100.00;101727.50;5071203;28;20029;-65
2021/01/12 06:14:08;;;;;;;2.85;0.30;;;;;;;10.74;100.00;101745.56;5071117;28;20040;-66
2021/01/12 06:16:36;;;;;;;4.85;0.75;;;;;;;10.71;100.00;101729.63;5071178;28;20379;-66
2021/01/12 06:19:19;;;;;;;2.10;0.30;;;;;;;10.71;100.00;101730.47;5070802;28;20060;-66
2021/01/12 06:21:53;;;;;;;5.50;0.38;;;;;;;10.70;100.00;101742.44;5071295;28;20032;-66
2021/01/12 06:24:42;;;;;;;3.42;0.30;;;;;;;10.70;100.00;101744.34;5071144;28;20029;-66
2021/01/12 06:27:13;;;;;;;0.98;0.20;;;;;;;10.69;100.00;101742.66;5022151;28;20048;-67
2021/01/12 06:29:40;;;;;;;0.32;0.10;;;;;;;10.68;100.00;101741.00;5070940;28;20159;-65
2021/01/12 06:32:06;;;;;;;1.15;0.43;;;;;;;10.68;100.00;101757.41;5053197;28;20101;-66
2021/01/12 06:34:32;;;;;;;1.08;0.20;;;;;;;10.68;100.00;101757.41;5052987;28;20409;-65
2021/01/12 06:36:59;;;;;;;1.10;0.20;;;;;;;10.67;100.00;101769.38;5070892;28;20029;-67
2021/01/12 06:39:49;;;;;;;0.90;0.10;;;;;;;10.67;100.00;101758.44;5069800;28;20065;-67
2021/01/12 06:42:19;;;;;;;0.20;0.10;;;;;;;10.66;100.00;101770.44;5053449;28;20086;-65
2021/01/12 06:44:48;;;;;;;0.35;0.20;;;;;;;10.66;100.00;101771.28;5070806;28;20025;-65
2021/01/12 06:47:17;;;;;;;0.68;0.28;;;;;;;10.67;100.00;101777.56;5070837;28;20075;-65
2021/01/12 06:49:42;;;;;;;0.52;0.20;;;;;;;10.68;100.00;101779.25;5070641;28;20032;-66
2021/01/12 06:52:09;;;;;;;1.23;0.20;;;;;;;10.68;100.00;101780.09;5070662;28;20151;-66
2021/01/12 06:54:35;;;;;;;2.00;0.15;;;;;;;10.68;100.00;101776.53;5070590;28;20515;-65
2021/01/12 06:57:04;;;;;;;2.28;0.22;;;;;;;10.68;100.00;101771.06;5070843;28;20093;-66
2021/01/12 06:59:45;;;;;;;0.63;0.30;;;;;;;10.70;100.00;101774.41;5070525;28;20060;-66
2021/01/12 07:02:27;;;;;;;0.90;0.10;;;;;;;10.69;100.00;101775.47;5070645;28;20376;-67
2021/01/12 07:05:14;;;;;;;1.95;0.20;;;;;;;10.71;100.00;101778.81;5070658;28;20150;-66
2021/01/12 07:07:47;;;;;;;1.65;0.50;;;;;;;10.72;100.00;101777.75;5070677;28;20040;-66
2021/01/12 07:10:17;;;;;;;2.00;0.25;;;;;;;10.73;100.00;101776.69;5070360;28;20044;-66
2021/01/12 07:12:43;;;;;;;2.83;0.20;;;;;;;10.71;100.00;101785.09;5070591;28;20032;-65
2021/01/12 07:15:14;;;;;;;0.95;0.20;;;;;;;10.72;100.00;101780.47;5070456;28;20090;-64
2021/01/12 07:17:51;;;;;;;1.23;0.20;;;;;;;10.71;100.00;101778.81;5070283;28;20036;-65
2021/01/12 07:20:21;;;;;;;1.75;0.20;;;;;;;10.72;100.00;101783.22;5070737;28;20375;-66
2021/01/12 07:22:55;;;;;;;1.35;0.25;;;;;;;10.70;100.00;101788.91;5070508;28;20036;-65
2021/01/12 07:25:26;;;;;;;0.88;0.17;;;;;;;10.71;100.00;101789.75;5070227;28;20444;-66
2021/01/12 07:27:58;;;;;;;0.85;0.30;;;;;;;10.70;100.00;101790.78;5070656;28;20058;-65
2021/01/12 07:30:24;;;;;;;0.30;0.10;;;;;;;10.69;100.00;101780.94;5070448;28;20443;-64
2021/01/12 07:32:55;;;;;;;2.60;0.50;;;;;;;10.68;100.00;101798.38;5070244;28;20101;-66
2021/01/12 07:35:21;;;;;;;1.85;0.22;;;;;;;10.68;100.00;101790.19;5070326;28;20032;-65
2021/01/12 07:37:47;;;;;;;2.40;0.25;;;;;;;10.67;100.00;101796.69;5070333;28;20050;-66
2021/01/12 07:40:13;;;;;;;3.10;0.30;;;;;;;10.66;100.00;101806.81;5070190;28;20123;-65
2021/01/12 07:43:03;;;;;;;1.60;0.40;;;;;;;10.65;100.00;101798.81;5070576;28;20036;-65
2021/01/12 07:45:34;;;;;;;2.28;0.20;;;;;;;10.63;100.00;101801.78;5052338;28;20501;-66
2021/01/12 07:48:02;;;;;;;1.38;0.20;;;;;;;10.63;100.00;101798.22;5070200;28;20032;-66
2021/01/12 07:50:29;;;;;;;1.02;0.35;;;;;;;10.62;100.00;101791.06;5070479;28;20043;-65
2021/01/12 07:52:58;;;;;;;1.15;0.82;;;;;;;10.61;100.00;101787.50;5073881;28;20029;-66
2021/01/12 07:55:24;;;;;;;1.67;0.60;;;;;;;10.60;100.00;101799.50;5073779;28;20075;-66
2021/01/12 07:57:51;;;;;;;0.98;0.28;;;;;;;10.60;100.00;101798.66;5073737;28;20561;-66
2021/01/12 08:00:18;;;;;;;1.95;0.20;;;;;;;10.58;100.00;101816.06;5073614;28;20043;-66
2021/01/12 08:02:48;;;;;;;1.00;0.22;;;;;;;10.58;100.00;101801.56;5073680;28;20036;-66
2021/01/12 08:05:16;;;;;;;1.45;0.20;;;;;;;10.56;100.00;101810.00;5073690;28;20058;-65
2021/01/12 08:07:42;;;;;;;1.65;0.10;;;;;;;10.56;100.00;101801.78;5073576;28;20123;-65
2021/01/12 08:10:08;;;;;;;2.08;0.20;;;;;;;10.55;100.00;101800.13;5073679;28;20035;-66
2021/01/12 08:12:34;;;;;;;2.05;0.40;;;;;;;10.56;100.00;101793.59;5073515;28;20120;-66
2021/01/12 08:15:11;;;;;;;1.23;0.30;;;;;;;10.55;100.00;101797.38;5073355;28;20603;-64
2021/01/12 08:17:45;;;;;;;3.20;0.28;;;;;;;10.56;100.00;101801.78;5073269;28;20508;-65
2021/01/12 08:20:12;;;;;;;2.50;0.30;;;;;;;10.56;100.00;101804.53;5073586;28;20139;-66
2021/01/12 08:22:38;;;;;;;1.52;0.20;;;;;;;10.55;100.00;101805.59;5072887;28;20032;-65
2021/01/12 08:25:07;;;;;;;1.92;0.35;;;;;;;10.56;100.00;101812.72;5073286;28;20115;-65
2021/01/12 08:27:33;;;;;;;1.27;0.20;;;;;;;10.57;100.00;101808.94;5073377;28;20032;-65
2021/01/12 08:30:05;;;;;;;2.17;0.30;;;;;;;10.57;100.00;101805.38;5072978;28;20036;-64
2021/01/12 08:32:33;;;;;;;2.58;0.82;;;;;;;10.57;100.00;101806.19;5073149;28;20486;-65
2021/01/12 08:35:07;;;;;;;1.25;0.22;;;;;;;10.59;100.00;101800.53;5073179;28;20037;-66
2021/01/12 08:37:38;;;;;;;4.22;0.40;;;;;;;10.57;100.00;101806.19;5055078;28;20168;-65
2021/01/12 08:40:05;;;;;;;2.08;0.30;;;;;;;10.57;100.00;101811.66;5072915;28;20090;-65
2021/01/12 08:42:33;;;;;;;2.47;0.30;;;;;;;10.60;100.00;101832.28;5073081;28;20037;-66
2021/01/12 08:45:00;;;;;;;2.13;0.38;;;;;;;10.60;100.00;101842.38;5073158;28;20036;-66
2021/01/12 08:47:27;;;;;;;1.85;0.40;;;;;;;10.61;100.00;101841.31;5072890;28;20048;-65
2021/01/12 08:50:03;;;;;;;1.73;0.50;;;;;;;10.62;100.00;101856.63;5075225;28;20462;-65
2021/01/12 08:52:30;;;;;;;1.15;0.28;;;;;;;10.62;100.00;101851.19;5080668;28;20045;-65
2021/01/12 08:54:56;;;;;;;2.85;0.30;;;;;;;10.66;100.00;101852.41;5072539;28;20097;-65
2021/01/12 08:57:22;;;;;;;4.18;0.50;;;;;;;10.67;100.00;101840.41;5072685;28;20044;-65
2021/01/12 08:59:47;;;;;;;3.05;1.13;;;;;;;10.68;100.00;101844.81;5072688;28;20039;-65
2021/01/12 09:02:18;;;;;;;1.73;0.35;;;;;;;10.71;100.00;101836.19;5070155;28;20051;-65
2021/01/12 09:04:44;;;;;;;2.97;0.43;;;;;;;10.71;100.00;101845.22;5072599;28;20123;-65
2021/01/12 09:07:10;;;;;;;4.45;0.65;;;;;;;10.74;100.00;101854.88;5072548;28;20094;-65
2021/01/12 09:09:36;;;;;;;2.22;0.40;;;;;;;10.74;100.00;101844.78;5071669;28;20048;-66
2021/01/12 09:12:03;;;;;;;2.30;0.30;;;;;;;10.77;100.00;101859.94;5054376;28;20071;-66
2021/01/12 09:14:31;;;;;;;1.55;0.20;;;;;;;10.78;100.00;101862.44;5072310;28;20044;-67
2021/01/12 09:17:02;;;;;;;2.17;0.20;;;;;;;10.81;100.00;101864.72;5071776;28;20429;-64
2021/01/12 09:19:41;;;;;;;4.05;0.30;;;;;;;10.85;100.00;101859.66;5071695;28;20048;-65
2021/01/12 09:22:17;;;;;;;2.75;0.30;;;;;;;10.85;100.00;101846.00;5072220;28;20482;-65
2021/01/12 09:24:51;;;;;;;2.80;0.38;;;;;;;10.85;100.00;101851.47;5072237;28;20479;-64
2021/01/12 09:27:21;;;;;;;2.07;0.50;;;;;;;10.87;100.00;101854.81;5071287;28;20028;-63
2021/01/12 09:29:48;;;;;;;1.52;0.30;;;;;;;10.85;100.00;101867.84;5071620;28;20028;-65
2021/01/12 09:32:27;;;;;;;1.95;0.40;;;;;;;10.89;100.00;101877.28;5066921;28;20040;-63
2021/01/12 09:34:53;;;;;;;2.33;0.40;;;;;;;10.88;100.00;101870.97;5070586;28;20390;-65
2021/01/12 09:37:19;;;;;;;6.40;0.50;;;;;;;10.89;100.00;101874.56;5081200;28;20036;-62
2021/01/12 09:39:56;;;;;;;4.95;0.60;;;;;;;10.88;100.00;101875.59;5079912;28;20046;-64
2021/01/12 09:42:26;;;;;;;1.75;0.40;;;;;;;10.89;100.00;101885.50;5078051;28;20028;-63
2021/01/12 09:44:54;;;;;;;4.20;0.40;;;;;;;10.91;100.00;101880.63;5082959;28;20028;-65
2021/01/12 09:47:20;;;;;;;6.15;0.65;;;;;;;10.90;100.00;101883.59;5079945;28;20111;-62
2021/01/12 09:49:47;;;;;;;5.90;0.80;;;;;;;10.91;100.00;101891.56;5065150;28;20167;-64
2021/01/12 09:52:15;;;;;;;4.65;1.08;;;;;;;10.92;100.00;101885.03;5071877;28;20031;-64
2021/01/12 09:54:46;;;;;;;1.90;0.40;;;;;;;10.94;100.00;101893.91;5060765;28;20040;-65
2021/01/12 09:57:13;;;;;;;4.43;0.40;;;;;;;10.96;100.00;101880.84;5070377;28;20043;-64
2021/01/12 09:59:39;;;;;;;6.80;0.93;;;;;;;10.97;100.00;101898.91;5076667;28;20042;-63
2021/01/12 10:02:05;;;;;;;8.40;0.80;;;;;;;11.01;100.00;101893.84;5078153;28;20035;-70
2021/01/12 10:04:31;;;;;;;12.45;1.27;;;;;;;11.03;100.00;101884.34;5056338;28;20033;-70
2021/01/12 10:06:58;;;;;;;4.45;0.88;;;;;;;11.06;100.00;101891.28;5064062;28;20487;-67
2021/01/12 10:09:25;;;;;;;8.27;1.23;;;;;;;11.07;100.00;101895.69;5070364;28;20032;-70
2021/01/12 10:11:51;;;;;;;3.60;0.65;;;;;;;11.08;100.00;101903.66;5071745;28;20044;-63
2021/01/12 10:14:21;;;;;;;9.38;1.08;;;;;;;11.13;100.00;101898.41;5069224;28;20116;-64
2021/01/12 10:16:48;;;;;;;2.58;0.65;;;;;;;11.18;100.00;101911.41;5070475;28;20039;-63
2021/01/12 10:19:14;;;;;;;7.93;1.17;;;;;;;11.17;100.00;101916.03;5070344;28;20049;-65
2021/01/12 10:21:40;;;;;;;4.10;0.80;;;;;;;11.17;100.00;101910.56;5070793;28;20080;-66
2021/01/12 10:24:06;;;;;;;8.65;1.15;;;;;;;11.18;100.00;101917.72;5070315;28;20052;-69
2021/01/12 10:26:32;;;;;;;11.23;1.60;;;;;;;11.18;100.00;101909.50;5071089;28;20039;-64
2021/01/12 10:28:58;;;;;;;8.73;1.65;;;;;;;11.18;100.00;101928.66;5070245;28;20036;-67
2021/01/12 10:31:24;;;;;;;6.50;1.05;;;;;;;11.19;100.00;101913.06;5070105;28;20483;-67
2021/01/12 10:33:50;;;;;;;6.47;1.00;;;;;;;11.20;100.00;101922.97;5070662;28;20086;-66
2021/01/12 10:36:17;;;;;;;8.38;1.35;;;;;;;11.23;100.00;101924.41;5070819;28;20117;-69
2021/01/12 10:38:44;;;;;;;4.82;1.65;;;;;;;11.24;100.00;101937.03;5070213;28;20063;-69
2021/01/12 10:41:10;;;;;;;3.72;1.42;;;;;;;11.23;100.00;101936.19;5070133;28;20039;-70
2021/01/12 10:43:35;;;;;;;4.07;1.02;;;;;;;11.21;100.00;101934.72;5070383;28;20403;-70
2021/01/12 10:46:02;;;;;;;4.85;0.63;;;;;;;11.22;100.00;101939.13;5070616;28;20036;-70
2021/01/12 10:48:28;;;;;;;3.40;0.70;;;;;;;11.23;100.00;101946.28;5070740;28;20032;-70
2021/01/12 10:50:54;;;;;;;3.67;0.82;;;;;;;11.22;100.00;101945.44;5070653;28;20481;-70
2021/01/12 10:53:20;;;;;;;2.20;0.50;;;;;;;11.26;100.00;101951.31;5069868;28;20051;-69
2021/01/12 10:55:46;;;;;;;2.20;0.65;;;;;;;11.27;100.00;101953.00;5070472;28;20040;-70
2021/01/12 10:58:11;;;;;;;3.17;0.70;;;;;;;11.29;100.00;101956.38;5070117;28;20040;-67
2021/01/12 11:00:38;;;;;;;2.83;0.70;;;;;;;11.27;100.00;101959.28;5070395;28;20117;-70
2021/01/12 11:03:07;;;;;;;2.97;0.90;;;;;;;11.26;100.00;101957.63;5070551;28;20032;-69
2021/01/12 11:05:36;;;;;;;4.78;1.00;;;;;;;11.26;100.00;101956.78;5052561;28;20545;-70
2021/01/12 11:08:03;;;;;;;5.43;1.52;;;;;;;11.23;100.00;101968.16;5070604;28;20078;-69
2021/01/12 11:10:30;;;;;;;3.92;1.00;;;;;;;11.24;100.00;101953.44;5070320;28;20139;-69
2021/01/12 11:13:00;;;;;;;2.70;0.77;;;;;;;11.23;100.00;101958.06;5070433;28;20094;-70
2021/01/12 11:15:29;;;;;;;1.85;0.60;;;;;;;11.24;100.00;101947.97;5070814;28;20037;-69
2021/01/12 11:17:55;;;;;;;3.75;0.43;;;;;;;11.25;100.00;101949.63;5070322;28;20082;-70
2021/01/12 11:20:21;;;;;;;1.35;0.40;;;;;;;11.25;100.00;101950.47;5052503;28;20048;-69